Time;durP1;ratioP1;P1;durP2;ratioP2;P2;SDS_P1;SDS_P2;PMS_P1;PMS_P2;Temp;Humidity;BMP_temperature;BMP_pressure;BME280_temperature;BME280_humidity;BME280_pressure;Samples;Min_cycle;Max_cycle;Signal;HPM_P1;HPM_P2
2022/03/15 00:01:12;;;;;;;10.43;6.57;;;;;;;1.18;66.83;101075.88;5093893;28;20230;-63
2022/03/15 00:03:39;;;;;;;13.03;6.60;;;;;;;1.35;65.04;101075.00;5096716;28;20286;-64
2022/03/15 00:06:06;;;;;;;13.13;6.73;;;;;;;1.43;64.46;101082.56;5099534;28;20603;-63
2022/03/15 00:08:34;;;;;;;13.07;6.83;;;;;;;1.50;64.61;101076.63;5098507;28;20208;-56
2022/03/15 00:11:04;;;;;;;12.77;7.13;;;;;;;1.47;64.35;101079.16;5097372;28;20229;-56
2022/03/15 00:13:32;;;;;;;14.13;7.00;;;;;;;1.51;63.98;101070.78;5096881;28;20209;-64
2022/03/15 00:16:01;;;;;;;10.60;6.47;;;;;;;1.58;63.88;101072.41;5097950;28;20240;-64
2022/03/15 00:18:31;;;;;;;11.00;6.60;;;;;;;1.54;64.01;101068.22;5098331;28;20225;-63
2022/03/15 00:20:59;;;;;;;11.67;6.50;;;;;;;1.40;64.83;101072.47;5098944;28;20221;-56
2022/03/15 00:23:26;;;;;;;13.27;7.03;;;;;;;1.40;65.13;101072.47;5099017;28;20207;-62
2022/03/15 00:25:54;;;;;;;11.30;6.63;;;;;;;1.31;65.24;101067.47;5098711;28;20244;-56
2022/03/15 00:28:22;;;;;;;13.93;7.10;;;;;;;1.16;66.10;101062.44;5098658;28;20213;-62
2022/03/15 00:30:48;;;;;;;12.13;7.13;;;;;;;1.12;66.55;101057.41;5098286;28;20234;-56
2022/03/15 00:33:17;;;;;;;12.80;6.67;;;;;;;1.29;65.08;101051.50;5097062;28;20201;-62
2022/03/15 00:35:46;;;;;;;12.40;6.90;;;;;;;1.19;65.69;101057.38;5095322;28;20248;-56
2022/03/15 00:38:13;;;;;;;14.37;6.87;;;;;;;1.06;66.11;101057.41;5097956;28;20206;-56
2022/03/15 00:40:41;;;;;;;12.07;6.37;;;;;;;1.19;65.21;101050.66;5098250;28;20222;-56
2022/03/15 00:43:08;;;;;;;12.03;7.07;;;;;;;1.23;65.34;101054.03;5098183;28;20650;-56
2022/03/15 00:45:35;;;;;;;12.33;7.10;;;;;;;1.20;65.12;101049.00;5097494;28;20226;-63
2022/03/15 00:48:02;;;;;;;11.07;6.53;;;;;;;1.17;65.84;101039.78;5097521;28;20217;-64
2022/03/15 00:50:33;;;;;;;10.70;6.50;;;;;;;1.20;64.74;101042.28;5097764;28;20221;-63
2022/03/15 00:53:00;;;;;;;11.70;6.20;;;;;;;1.18;65.40;101030.53;5097362;28;20234;-56
2022/03/15 00:55:27;;;;;;;10.47;6.30;;;;;;;1.27;65.34;101035.53;5098332;28;20233;-56
2022/03/15 00:57:55;;;;;;;12.27;6.70;;;;;;;1.31;64.86;101037.22;5097273;28;20206;-56
2022/03/15 01:00:22;;;;;;;12.00;6.20;;;;;;;1.20;65.32;101038.94;5096895;28;20703;-62
2022/03/15 01:02:50;;;;;;;12.33;6.97;;;;;;;1.09;65.79;101036.44;5099059;28;20760;-56
2022/03/15 01:05:17;;;;;;;12.47;6.83;;;;;;;1.04;66.09;101033.91;5097840;28;20291;-62
2022/03/15 01:07:46;;;;;;;11.17;6.43;;;;;;;1.21;64.71;101030.53;5097379;28;20267;-64
2022/03/15 01:10:13;;;;;;;15.67;7.40;;;;;;;1.28;64.88;101032.16;5096011;28;20225;-63
2022/03/15 01:12:40;;;;;;;10.90;6.10;;;;;;;1.20;65.13;101024.66;5097664;28;20612;-57
2022/03/15 01:15:08;;;;;;;12.33;6.37;;;;;;;1.22;65.19;101032.19;5099035;28;20226;-56
2022/03/15 01:17:36;;;;;;;11.70;6.20;;;;;;;1.23;65.09;101026.31;5096079;28;20178;-64
2022/03/15 01:20:03;;;;;;;11.70;6.30;;;;;;;1.16;65.20;101022.97;5095114;28;20231;-64
2022/03/15 01:22:30;;;;;;;12.43;6.27;;;;;;;1.16;65.43;101024.66;5097018;28;20209;-64
2022/03/15 01:24:58;;;;;;;11.77;6.20;;;;;;;1.20;65.22;101024.66;5097806;28;20628;-56
2022/03/15 01:27:25;;;;;;;10.87;6.27;;;;;;;1.20;65.25;101033.91;5098794;28;20206;-56
2022/03/15 01:29:52;;;;;;;13.37;6.30;;;;;;;1.22;66.16;101022.09;5095317;28;20221;-63
2022/03/15 01:32:20;;;;;;;11.33;6.40;;;;;;;1.20;65.62;101023.81;5094018;28;20262;-56
2022/03/15 01:34:47;;;;;;;9.47;6.17;;;;;;;1.15;65.98;101021.28;5096686;28;20216;-56
2022/03/15 01:37:14;;;;;;;10.90;5.93;;;;;;;1.10;65.88;101013.75;5096395;28;20198;-59
2022/03/15 01:39:41;;;;;;;10.27;6.37;;;;;;;1.02;66.29;101015.47;5097059;28;20217;-64
2022/03/15 01:42:10;;;;;;;10.83;6.33;;;;;;;0.87;66.39;101013.81;5094842;28;20205;-61
2022/03/15 01:44:37;;;;;;;11.00;6.17;;;;;;;0.83;66.50;101018.84;5095588;28;20282;-64
2022/03/15 01:47:05;;;;;;;10.80;6.17;;;;;;;0.73;66.89;101027.22;5097735;28;20265;-56
2022/03/15 01:49:33;;;;;;;13.97;6.60;;;;;;;0.86;66.42;101026.38;5095139;28;20194;-56
2022/03/15 01:52:01;;;;;;;11.63;6.17;;;;;;;0.99;66.03;101033.09;5096139;28;20297;-56
2022/03/15 01:54:28;;;;;;;11.00;6.00;;;;;;;0.88;66.40;101047.38;5096176;28;20198;-64
2022/03/15 01:56:54;;;;;;;12.10;5.97;;;;;;;0.83;66.68;101044.03;5096323;28;20261;-56
2022/03/15 01:59:23;;;;;;;11.57;6.40;;;;;;;0.92;66.38;101040.66;5096752;28;20244;-56
2022/03/15 02:01:50;;;;;;;11.73;6.50;;;;;;;1.05;65.64;101039.81;5096421;28;20226;-58
2022/03/15 02:04:17;;;;;;;11.10;6.20;;;;;;;1.00;65.83;101037.28;5096493;28;20646;-56
2022/03/15 02:06:45;;;;;;;10.73;6.17;;;;;;;0.85;66.40;101048.22;5095076;28;20753;-63
2022/03/15 02:09:14;;;;;;;10.93;6.20;;;;;;;0.76;67.05;101047.41;5096658;28;20202;-55
2022/03/15 02:11:41;;;;;;;11.50;6.50;;;;;;;0.79;66.96;101047.38;5095092;28;20221;-55
2022/03/15 02:14:08;;;;;;;9.73;5.57;;;;;;;0.74;66.88;101049.06;5095623;28;20224;-56
2022/03/15 02:16:38;;;;;;;12.27;6.27;;;;;;;0.70;67.21;101052.41;5094830;28;20239;-56
2022/03/15 02:19:05;;;;;;;9.40;5.83;;;;;;;0.63;67.22;101057.44;5095718;28;20194;-64
2022/03/15 02:21:34;;;;;;;11.00;6.27;;;;;;;0.61;67.83;101046.56;5096650;28;20218;-57
2022/03/15 02:24:01;;;;;;;11.37;6.03;;;;;;;0.60;67.25;101051.56;5094974;28;20201;-64
2022/03/15 02:26:28;;;;;;;11.57;6.10;;;;;;;0.52;67.83;101046.53;5093911;28;20217;-56
2022/03/15 02:28:55;;;;;;;10.97;5.70;;;;;;;0.70;67.01;101042.34;5095148;28;20216;-58
2022/03/15 02:31:22;;;;;;;12.23;6.27;;;;;;;0.86;65.59;101044.00;5096474;28;20233;-63
2022/03/15 02:33:49;;;;;;;10.70;5.83;;;;;;;0.91;65.33;101032.25;5094630;28;20197;-56
2022/03/15 02:36:16;;;;;;;9.20;5.40;;;;;;;1.00;64.76;101034.75;5095490;28;20244;-64
2022/03/15 02:38:45;;;;;;;12.70;5.90;;;;;;;1.04;64.31;101026.34;5095557;28;20218;-56
2022/03/15 02:41:12;;;;;;;12.27;6.30;;;;;;;1.04;64.72;101033.91;5094060;28;20229;-61
2022/03/15 02:43:39;;;;;;;12.30;6.00;;;;;;;1.09;64.66;101027.19;5093577;28;20217;-57
2022/03/15 02:46:07;;;;;;;13.53;6.67;;;;;;;1.16;65.33;101022.97;5095872;28;20221;-64
2022/03/15 02:48:34;;;;;;;10.73;6.20;;;;;;;1.08;65.33;101019.66;5095228;28;20625;-63
2022/03/15 02:51:06;;;;;;;11.43;6.20;;;;;;;1.00;65.09;101017.13;5094483;28;20714;-56
2022/03/15 02:53:34;;;;;;;11.00;5.93;;;;;;;1.01;64.37;101013.75;5095702;28;20595;-56
2022/03/15 02:56:04;;;;;;;9.17;5.53;;;;;;;1.09;64.28;101007.03;5095205;28;20238;-63
2022/03/15 02:58:32;;;;;;;10.33;5.83;;;;;;;1.19;64.65;101007.00;5095872;28;20206;-63
2022/03/15 03:00:59;;;;;;;10.07;6.03;;;;;;;1.14;65.49;100999.47;5096189;28;20226;-63
2022/03/15 03:03:25;;;;;;;12.60;6.30;;;;;;;1.04;65.31;100996.13;5095832;28;20607;-56
2022/03/15 03:05:52;;;;;;;12.57;6.27;;;;;;;1.02;64.33;100999.47;5094205;28;20222;-61
2022/03/15 03:08:22;;;;;;;11.33;5.70;;;;;;;1.05;63.89;101005.38;5095180;28;20687;-63
2022/03/15 03:10:48;;;;;;;10.07;5.83;;;;;;;1.05;64.04;100995.31;5094984;28;20746;-64
2022/03/15 03:13:18;;;;;;;11.27;5.50;;;;;;;1.05;64.55;101000.34;5093672;28;20251;-63
2022/03/15 03:15:45;;;;;;;8.87;5.53;;;;;;;1.09;64.82;100994.44;5095282;28;20230;-56
2022/03/15 03:18:12;;;;;;;10.43;5.77;;;;;;;1.16;63.68;100996.94;5093341;28;20213;-56
2022/03/15 03:20:40;;;;;;;11.70;6.17;;;;;;;1.17;63.27;100998.63;5094445;28;20248;-64
2022/03/15 03:23:07;;;;;;;13.13;6.47;;;;;;;1.18;64.88;100995.25;5095328;28;20202;-56
2022/03/15 03:25:36;;;;;;;10.10;6.00;;;;;;;1.11;65.09;100990.25;5094183;28;20229;-55
2022/03/15 03:28:05;;;;;;;9.40;5.30;;;;;;;1.02;64.98;100994.44;5095137;28;20201;-63
2022/03/15 03:30:34;;;;;;;10.17;5.40;;;;;;;1.03;63.94;100994.47;5093262;28;20771;-56
2022/03/15 03:33:01;;;;;;;10.03;6.10;;;;;;;1.07;65.45;100988.56;5093225;28;20209;-56
2022/03/15 03:35:28;;;;;;;10.80;5.93;;;;;;;0.98;65.63;100993.63;5095228;28;20225;-63
2022/03/15 03:37:55;;;;;;;15.90;5.83;;;;;;;0.86;65.22;100988.63;5095533;28;20201;-64
2022/03/15 03:40:21;;;;;;;12.67;5.87;;;;;;;0.81;65.55;100995.34;5093099;28;20494;-62
2022/03/15 03:42:48;;;;;;;9.00;5.33;;;;;;;0.75;64.95;101016.31;5094946;28;20212;-64
2022/03/15 03:45:15;;;;;;;10.27;5.67;;;;;;;0.60;66.30;101018.84;5094177;28;20809;-56
2022/03/15 03:47:43;;;;;;;11.30;5.60;;;;;;;0.67;66.88;101025.59;5095379;28;20208;-56
2022/03/15 03:50:11;;;;;;;11.30;5.97;;;;;;;0.72;66.61;101020.53;5093923;28;20472;-63
2022/03/15 03:52:38;;;;;;;11.60;5.77;;;;;;;0.72;65.36;101015.50;5094657;28;20205;-64
2022/03/15 03:55:05;;;;;;;10.83;5.73;;;;;;;0.65;65.77;101010.47;5094787;28;20494;-63
2022/03/15 03:57:33;;;;;;;10.63;5.30;;;;;;;0.69;65.40;101006.25;5093319;28;20234;-63
2022/03/15 04:00:00;;;;;;;10.13;5.77;;;;;;;0.72;65.59;101010.47;5093553;28;20229;-64
2022/03/15 04:02:27;;;;;;;9.50;5.20;;;;;;;0.74;65.27;101009.63;5094429;28;20233;-63
2022/03/15 04:04:56;;;;;;;11.07;5.80;;;;;;;0.65;65.38;101014.66;5095547;28;20217;-64
2022/03/15 04:07:24;;;;;;;10.17;5.63;;;;;;;0.59;66.14;101010.47;5094007;28;20206;-55
2022/03/15 04:09:51;;;;;;;9.87;5.47;;;;;;;0.65;66.86;101020.53;5093975;28;20205;-63
2022/03/15 04:12:21;;;;;;;8.53;5.47;;;;;;;0.67;66.67;101018.88;5090668;28;20202;-63
2022/03/15 04:14:48;;;;;;;10.33;5.73;;;;;;;0.72;66.21;101016.31;5095609;28;20661;-56
2022/03/15 04:17:16;;;;;;;11.83;5.73;;;;;;;0.74;65.96;101004.59;5094870;28;20261;-63
2022/03/15 04:19:43;;;;;;;15.77;6.30;;;;;;;0.78;65.50;101013.78;5095202;28;20198;-63
2022/03/15 04:22:11;;;;;;;12.50;5.67;;;;;;;0.66;66.41;101017.16;5093539;28;20205;-58
2022/03/15 04:24:38;;;;;;;11.07;5.53;;;;;;;0.61;67.07;101013.84;5094301;28;20213;-64
2022/03/15 04:27:06;;;;;;;11.07;6.00;;;;;;;0.68;65.81;101010.47;5094603;28;20201;-56
2022/03/15 04:29:33;;;;;;;10.97;5.67;;;;;;;0.74;65.93;101014.66;5093781;28;20206;-64
2022/03/15 04:32:00;;;;;;;11.70;6.57;;;;;;;0.68;66.49;101020.53;5094893;28;20209;-64
2022/03/15 04:34:27;;;;;;;10.60;5.93;;;;;;;0.66;66.88;101022.19;5094808;28;20275;-64
2022/03/15 04:36:54;;;;;;;11.53;6.07;;;;;;;0.56;66.97;101019.72;5094302;28;20241;-55
2022/03/15 04:39:23;;;;;;;11.00;6.10;;;;;;;0.66;66.29;101018.84;5094324;28;20217;-63
2022/03/15 04:41:50;;;;;;;10.50;5.93;;;;;;;0.73;65.98;101012.13;5093683;28;20232;-63
2022/03/15 04:44:18;;;;;;;12.30;6.07;;;;;;;0.67;65.77;101008.78;5095484;28;20421;-63
2022/03/15 04:46:46;;;;;;;12.60;6.57;;;;;;;0.66;66.66;101007.09;5093794;28;20474;-55
2022/03/15 04:49:14;;;;;;;10.00;5.37;;;;;;;0.70;65.54;101002.06;5096751;28;20206;-63
2022/03/15 04:51:41;;;;;;;12.77;6.13;;;;;;;0.73;66.05;101007.94;5097611;28;20222;-64
2022/03/15 04:54:07;;;;;;;11.20;6.00;;;;;;;0.75;65.39;101011.28;5097181;28;20444;-56
2022/03/15 04:56:37;;;;;;;10.27;5.80;;;;;;;0.79;65.28;101012.16;5095278;28;20237;-55
2022/03/15 04:59:04;;;;;;;14.30;6.30;;;;;;;0.79;65.69;101022.22;5097819;28;20205;-62
2022/03/15 05:01:32;;;;;;;12.67;5.87;;;;;;;0.90;65.52;101010.41;5098155;28;20471;-55
2022/03/15 05:03:58;;;;;;;11.40;6.07;;;;;;;1.01;65.61;101011.25;5097555;28;20228;-63
2022/03/15 05:06:25;;;;;;;12.87;5.80;;;;;;;1.02;65.05;101007.91;5097866;28;20737;-56
2022/03/15 05:08:52;;;;;;;11.80;5.73;;;;;;;1.19;64.46;101001.97;5096421;28;20202;-63
2022/03/15 05:11:18;;;;;;;10.00;6.07;;;;;;;1.32;63.86;100991.00;5095379;28;20222;-56
2022/03/15 05:13:48;;;;;;;11.30;5.90;;;;;;;1.44;63.39;100997.69;5095997;28;20210;-64
2022/03/15 05:16:17;;;;;;;11.07;6.23;;;;;;;1.55;63.59;101006.88;5093921;28;20222;-64
2022/03/15 05:18:45;;;;;;;10.97;6.33;;;;;;;1.76;63.27;101005.94;5094714;28;20212;-59
2022/03/15 05:21:14;;;;;;;12.60;5.90;;;;;;;1.82;62.51;101007.59;5093580;28;20222;-63
2022/03/15 05:23:41;;;;;;;11.60;6.00;;;;;;;1.94;62.64;101025.16;5096217;28;20202;-57
2022/03/15 05:26:08;;;;;;;11.83;5.90;;;;;;;2.06;62.31;101018.38;5095559;28;20229;-57
2022/03/15 05:28:35;;;;;;;10.33;5.77;;;;;;;2.15;62.51;101025.88;5095651;28;20596;-57
2022/03/15 05:31:03;;;;;;;10.40;5.73;;;;;;;2.31;61.47;101026.63;5099610;28;20218;-57
2022/03/15 05:33:30;;;;;;;10.00;5.70;;;;;;;2.56;60.32;101024.75;5100045;28;20260;-65
2022/03/15 05:35:58;;;;;;;12.70;6.37;;;;;;;2.67;59.48;101021.28;5096974;28;20222;-64
2022/03/15 05:38:25;;;;;;;10.73;6.03;;;;;;;2.83;59.44;101024.53;5096669;28;20213;-65
2022/03/15 05:40:54;;;;;;;10.63;5.73;;;;;;;3.09;57.88;101028.50;5079186;28;20707;-56
2022/03/15 05:43:21;;;;;;;11.40;5.73;;;;;;;3.23;59.38;101018.22;5098114;28;20186;-62
2022/03/15 05:45:48;;;;;;;11.07;5.77;;;;;;;3.58;57.94;101027.94;5097223;28;20244;-64
2022/03/15 05:48:17;;;;;;;12.57;6.53;;;;;;;3.83;56.54;101026.75;5097239;28;20363;-65
2022/03/15 05:50:44;;;;;;;13.07;6.20;;;;;;;4.06;56.46;101028.13;5096789;28;20722;-64
2022/03/15 05:53:11;;;;;;;14.60;5.87;;;;;;;4.20;56.63;101031.31;5097123;28;20214;-56
2022/03/15 05:55:39;;;;;;;11.47;6.20;;;;;;;4.40;56.67;101030.19;5096472;28;20222;-56
2022/03/15 05:58:06;;;;;;;12.10;6.47;;;;;;;4.84;55.78;101043.81;5095594;28;20644;-64
2022/03/15 06:00:33;;;;;;;12.77;6.33;;;;;;;5.15;54.18;101047.47;5095205;28;20233;-56
2022/03/15 06:03:00;;;;;;;10.03;5.93;;;;;;;5.61;54.45;101054.22;5096312;28;20202;-57
2022/03/15 06:05:30;;;;;;;9.93;5.80;;;;;;;5.81;53.21;101047.88;5096516;28;20225;-57
2022/03/15 06:07:57;;;;;;;12.97;6.63;;;;;;;5.84;52.89;101045.25;5096471;28;20599;-56
2022/03/15 06:10:26;;;;;;;12.97;6.70;;;;;;;5.95;53.23;101050.16;5096700;28;20236;-56
2022/03/15 06:12:53;;;;;;;11.57;6.83;;;;;;;5.87;52.48;101055.34;5097248;28;20228;-56
2022/03/15 06:15:21;;;;;;;12.10;6.97;;;;;;;5.80;52.20;101053.81;5098656;28;20229;-64
2022/03/15 06:17:51;;;;;;;9.93;6.13;;;;;;;5.74;52.40;101053.94;5095887;28;20233;-63
2022/03/15 06:20:20;;;;;;;10.93;6.17;;;;;;;5.74;53.04;101053.94;5096657;28;20235;-64
2022/03/15 06:22:49;;;;;;;10.13;6.27;;;;;;;5.80;52.79;101053.81;5096516;28;20288;-56
2022/03/15 06:25:16;;;;;;;10.73;6.47;;;;;;;6.17;52.93;101060.66;5096463;28;20237;-59
2022/03/15 06:27:44;;;;;;;11.77;6.60;;;;;;;6.41;51.10;101057.56;5096850;28;20206;-56
2022/03/15 06:30:12;;;;;;;10.87;6.67;;;;;;;6.57;50.81;101058.88;5096636;28;20232;-56
2022/03/15 06:32:40;;;;;;;13.37;7.20;;;;;;;6.78;50.07;101064.31;5095977;28;20228;-56
2022/03/15 06:35:09;;;;;;;12.93;7.70;;;;;;;7.07;50.72;101057.63;5093432;28;20245;-64
2022/03/15 06:37:39;;;;;;;12.20;7.07;;;;;;;7.38;50.01;101057.66;5094589;28;20259;-64
2022/03/15 06:40:09;;;;;;;10.50;6.60;;;;;;;7.72;49.95;101057.56;5094538;28;20249;-64
2022/03/15 06:42:37;;;;;;;18.70;7.90;;;;;;;7.86;48.73;101065.63;5095594;28;20210;-56
2022/03/15 06:45:04;;;;;;;12.57;7.37;;;;;;;7.74;48.36;101076.19;5094799;28;20221;-64
2022/03/15 06:47:31;;;;;;;12.20;7.33;;;;;;;7.21;48.51;101083.56;5094688;28;20202;-63
2022/03/15 06:49:58;;;;;;;13.30;7.33;;;;;;;7.36;49.26;101080.63;5096615;28;20236;-63
2022/03/15 06:52:24;;;;;;;12.23;6.63;;;;;;;7.14;49.07;101087.16;5094098;28;20217;-55
2022/03/15 06:54:51;;;;;;;10.33;6.47;;;;;;;6.89;49.91;101082.66;5093006;28;20618;-62
2022/03/15 06:57:20;;;;;;;11.40;6.40;;;;;;;6.60;51.01;101083.38;5095983;28;20244;-61
2022/03/15 06:59:47;;;;;;;10.90;6.70;;;;;;;6.80;49.98;101090.53;5095385;28;20237;-55
2022/03/15 07:02:14;;;;;;;11.33;7.27;;;;;;;6.95;49.74;101092.72;5096800;28;20204;-63
2022/03/15 07:04:42;;;;;;;10.37;5.90;;;;;;;6.90;49.37;101089.44;5095175;28;20215;-54
2022/03/15 07:07:09;;;;;;;11.07;6.97;;;;;;;6.92;50.08;101095.31;5095627;28;20210;-62
2022/03/15 07:09:36;;;;;;;9.40;6.30;;;;;;;7.09;48.80;101094.06;5094977;28;20202;-55
2022/03/15 07:12:04;;;;;;;9.33;6.17;;;;;;;7.38;50.69;101094.13;5095327;28;20198;-55
2022/03/15 07:14:32;;;;;;;12.07;6.07;;;;;;;7.66;49.12;101093.38;5094877;28;20272;-62
2022/03/15 07:17:00;;;;;;;11.07;6.47;;;;;;;8.10;49.81;101092.09;5094769;28;20248;-63
2022/03/15 07:19:27;;;;;;;10.20;6.90;;;;;;;8.55;49.58;101085.66;5096058;28;20284;-56
2022/03/15 07:21:54;;;;;;;10.80;6.60;;;;;;;8.85;49.02;101088.94;5094832;28;20322;-56
2022/03/15 07:24:22;;;;;;;13.57;6.90;;;;;;;9.03;46.47;101084.94;5094029;28;20275;-64
2022/03/15 07:26:49;;;;;;;11.97;7.33;;;;;;;8.96;46.19;101091.97;5094765;28;20256;-56
2022/03/15 07:29:16;;;;;;;10.40;6.60;;;;;;;9.17;45.62;101095.50;5095239;28;20205;-64
2022/03/15 07:31:45;;;;;;;10.53;6.97;;;;;;;9.43;46.32;101091.22;5095267;28;20233;-64
2022/03/15 07:34:13;;;;;;;14.30;6.60;;;;;;;9.79;46.04;101081.38;5096110;28;20229;-56
2022/03/15 07:36:41;;;;;;;11.77;7.00;;;;;;;10.12;46.08;101083.56;5096534;28;20222;-64
2022/03/15 07:39:08;;;;;;;10.67;6.77;;;;;;;10.46;44.32;101083.13;5094937;28;20241;-56
2022/03/15 07:41:38;;;;;;;9.87;6.53;;;;;;;10.38;44.62;101074.91;5094433;28;20261;-56
2022/03/15 07:44:06;;;;;;;12.70;7.07;;;;;;;10.85;44.53;101080.69;5094971;28;20217;-57
2022/03/15 07:46:33;;;;;;;10.83;6.77;;;;;;;11.19;42.77;101080.97;5094710;28;20229;-56
2022/03/15 07:49:01;;;;;;;11.43;7.10;;;;;;;11.03;44.63;101076.50;5093966;28;20205;-56
2022/03/15 07:51:28;;;;;;;11.50;7.13;;;;;;;10.88;42.37;101084.84;5093636;28;20228;-64
2022/03/15 07:53:58;;;;;;;14.40;7.60;;;;;;;10.79;43.36;101082.63;5094485;28;20214;-56
2022/03/15 07:56:25;;;;;;;19.73;7.60;;;;;;;10.96;42.27;101084.50;5094217;28;20225;-56
2022/03/15 07:58:52;;;;;;;12.20;7.17;;;;;;;10.85;41.77;101087.53;5091826;28;20229;-57
2022/03/15 08:01:20;;;;;;;11.37;7.20;;;;;;;10.85;42.93;101092.66;5094466;28;20230;-65
2022/03/15 08:03:49;;;;;;;13.93;6.80;;;;;;;10.88;43.80;101088.22;5096981;28;20251;-63
2022/03/15 08:06:18;;;;;;;12.90;7.60;;;;;;;11.09;41.11;101095.91;5096446;28;20229;-64
2022/03/15 08:08:45;;;;;;;9.83;7.17;;;;;;;11.24;42.86;101099.53;5094733;28;20210;-56
2022/03/15 08:11:11;;;;;;;11.80;7.20;;;;;;;11.49;45.84;101087.34;5094392;28;20735;-56
2022/03/15 08:13:39;;;;;;;13.97;7.13;;;;;;;11.94;41.93;101085.38;5093727;28;20205;-57
2022/03/15 08:16:07;;;;;;;11.47;7.17;;;;;;;12.20;43.33;101087.56;5094326;28;20217;-65
2022/03/15 08:18:33;;;;;;;10.00;6.40;;;;;;;12.46;40.96;101078.63;5095599;28;20280;-57
2022/03/15 08:21:01;;;;;;;9.57;6.60;;;;;;;12.40;40.80;101076.34;5096413;28;20218;-56
2022/03/15 08:23:29;;;;;;;14.10;7.30;;;;;;;12.78;42.37;101078.78;5095336;28;20204;-57
2022/03/15 08:25:56;;;;;;;10.03;6.67;;;;;;;12.58;38.82;101087.47;5097158;28;20255;-56
2022/03/15 08:28:24;;;;;;;11.37;7.63;;;;;;;12.40;39.85;101081.47;5101224;28;20208;-64
2022/03/15 08:30:51;;;;;;;10.93;6.70;;;;;;;12.81;40.45;101077.81;5098747;28;20218;-63
2022/03/15 08:33:18;;;;;;;11.60;7.13;;;;;;;13.12;40.60;101083.06;5097181;28;20206;-57
2022/03/15 08:35:46;;;;;;;10.27;6.93;;;;;;;13.32;41.00;101084.66;5096534;28;20214;-64
2022/03/15 08:38:13;;;;;;;13.57;6.90;;;;;;;13.57;39.31;101073.91;5098317;28;20286;-56
2022/03/15 08:40:41;;;;;;;11.23;7.33;;;;;;;13.67;40.80;101063.97;5098608;28;20227;-64
2022/03/15 08:43:08;;;;;;;13.20;7.13;;;;;;;13.84;41.17;101064.78;5097433;28;20207;-56
2022/03/15 08:45:36;;;;;;;12.20;7.50;;;;;;;13.96;39.41;101071.84;5096527;28;20241;-56
2022/03/15 08:48:03;;;;;;;10.83;7.27;;;;;;;14.27;39.72;101074.38;5097083;28;20198;-56
2022/03/15 08:50:30;;;;;;;11.23;6.90;;;;;;;14.36;38.34;101067.88;5097126;28;20234;-64
2022/03/15 08:52:57;;;;;;;10.90;7.33;;;;;;;14.62;36.74;101069.00;5095374;28;20207;-56
2022/03/15 08:55:24;;;;;;;15.50;7.47;;;;;;;14.71;38.89;101071.06;5097902;28;20665;-65
2022/03/15 08:57:53;;;;;;;10.73;7.30;;;;;;;14.00;42.14;101076.75;5098138;28;20315;-64
2022/03/15 09:00:20;;;;;;;10.00;7.10;;;;;;;13.32;39.03;101074.38;5098228;28;20418;-64
2022/03/15 09:02:47;;;;;;;11.10;7.93;;;;;;;13.04;40.38;101074.09;5096434;28;20229;-64
2022/03/15 09:05:16;;;;;;;9.97;6.67;;;;;;;13.14;39.45;101062.44;5096792;28;20233;-64
2022/03/15 09:07:45;;;;;;;11.63;7.13;;;;;;;12.93;37.70;101060.97;5097038;28;20263;-64
2022/03/15 09:10:12;;;;;;;11.63;7.90;;;;;;;13.16;39.74;101063.19;5096815;28;20321;-64
2022/03/15 09:12:38;;;;;;;11.17;7.37;;;;;;;12.64;40.84;101061.50;5095509;28;20209;-56
2022/03/15 09:15:07;;;;;;;12.33;7.57;;;;;;;12.69;36.41;101058.72;5095916;28;20230;-57
2022/03/15 09:17:34;;;;;;;12.73;7.80;;;;;;;12.56;39.24;101052.50;5097690;28;20245;-64
2022/03/15 09:20:02;;;;;;;13.23;7.47;;;;;;;12.57;42.16;101059.31;5097793;28;20605;-59
2022/03/15 09:22:28;;;;;;;11.60;7.30;;;;;;;13.10;37.80;101060.94;5097545;28;20208;-64
2022/03/15 09:24:56;;;;;;;11.30;7.20;;;;;;;12.88;35.73;101048.34;5096941;28;20280;-57
2022/03/15 09:27:22;;;;;;;9.80;6.70;;;;;;;13.06;35.73;101041.44;5095689;28;20210;-56
2022/03/15 09:29:49;;;;;;;11.40;7.70;;;;;;;13.63;37.66;101036.75;5096241;28;20702;-56
2022/03/15 09:32:18;;;;;;;11.97;7.17;;;;;;;14.20;35.59;101037.06;5095234;28;20661;-64
2022/03/15 09:34:45;;;;;;;11.23;7.33;;;;;;;14.58;37.52;101036.66;5094059;28;20209;-65
2022/03/15 09:37:12;;;;;;;12.20;7.10;;;;;;;14.52;33.75;101036.19;5094430;28;20206;-56
2022/03/15 09:39:39;;;;;;;11.87;7.80;;;;;;;14.14;33.31;101027.13;5094010;28;20242;-56
2022/03/15 09:42:08;;;;;;;11.77;7.53;;;;;;;13.45;36.06;101032.63;5093979;28;20684;-64
2022/03/15 09:44:39;;;;;;;14.10;7.87;;;;;;;13.02;38.26;101030.50;5094793;28;20209;-64
2022/03/15 09:47:08;;;;;;;11.37;8.00;;;;;;;13.70;33.73;101017.53;5095958;28;20203;-64
2022/03/15 09:49:38;;;;;;;12.43;7.37;;;;;;;14.09;36.74;101011.09;5097813;28;20208;-57
2022/03/15 09:52:07;;;;;;;12.90;7.80;;;;;;;14.14;31.37;101011.69;5096134;28;20223;-65
2022/03/15 09:54:35;;;;;;;17.30;8.13;;;;;;;13.78;32.71;101010.22;5095374;28;20455;-56
2022/03/15 09:57:05;;;;;;;11.97;8.00;;;;;;;14.31;35.81;101002.16;5096455;28;20209;-57
2022/03/15 09:59:32;;;;;;;12.40;7.90;;;;;;;13.82;34.62;100996.31;5095612;28;20234;-65
2022/03/15 10:01:59;;;;;;;15.20;8.40;;;;;;;14.43;36.07;100996.34;5095186;28;20201;-65
2022/03/15 10:04:29;;;;;;;13.53;8.20;;;;;;;14.87;36.83;100986.03;5098133;28;20204;-57
2022/03/15 10:06:57;;;;;;;13.97;8.60;;;;;;;15.51;35.82;100980.44;5097145;28;20232;-57
2022/03/15 10:09:25;;;;;;;12.50;8.83;;;;;;;15.54;36.79;100981.06;5096726;28;20202;-57
2022/03/15 10:11:52;;;;;;;13.60;8.03;;;;;;;15.79;36.08;100964.88;5095306;28;20595;-65
2022/03/15 10:14:20;;;;;;;13.23;8.63;;;;;;;15.99;32.33;100968.75;5094363;28;20300;-64
2022/03/15 10:16:50;;;;;;;15.13;8.43;;;;;;;15.05;33.33;100965.22;5093838;28;20221;-65
2022/03/15 10:19:17;;;;;;;12.37;8.50;;;;;;;15.38;34.52;100957.16;5094116;28;20233;-65
2022/03/15 10:21:48;;;;;;;14.83;8.30;;;;;;;15.35;32.59;100952.19;5093251;28;20696;-57
2022/03/15 10:24:22;;;;;;;11.97;8.40;;;;;;;14.62;35.55;100955.75;5096209;28;20209;-65
2022/03/15 10:26:50;;;;;;;14.23;8.83;;;;;;;14.68;35.72;100950.22;5095842;28;20256;-64
2022/03/15 10:29:20;;;;;;;14.97;8.73;;;;;;;14.84;36.46;100939.03;5095988;28;20201;-57
2022/03/15 10:31:48;;;;;;;12.23;8.60;;;;;;;14.74;36.42;100937.91;5094740;28;20309;-57
2022/03/15 10:34:17;;;;;;;13.30;8.80;;;;;;;15.50;38.59;100932.34;5094143;28;20198;-65
2022/03/15 10:36:46;;;;;;;13.67;8.87;;;;;;;15.34;35.55;100927.34;5095526;28;20695;-65
2022/03/15 10:39:16;;;;;;;12.50;8.20;;;;;;;15.79;33.91;100927.94;5094430;28;20237;-65
2022/03/15 10:41:46;;;;;;;12.13;8.50;;;;;;;16.12;34.50;100921.53;5095283;28;20229;-64
2022/03/15 10:44:18;;;;;;;14.73;8.83;;;;;;;16.41;35.94;100920.41;5093959;28;20209;-58
2022/03/15 10:46:45;;;;;;;12.53;8.20;;;;;;;16.70;33.37;100909.84;5094727;28;20220;-64
2022/03/15 10:49:12;;;;;;;16.17;9.20;;;;;;;16.73;35.02;100894.97;5096684;28;20265;-65
2022/03/15 10:51:39;;;;;;;13.93;8.40;;;;;;;16.91;35.21;100887.72;5095269;28;20273;-65
2022/03/15 10:54:08;;;;;;;14.27;8.73;;;;;;;15.23;32.46;100884.22;5096091;28;20212;-57
2022/03/15 10:56:36;;;;;;;14.13;8.80;;;;;;;15.61;35.30;100886.91;5092530;28;20711;-65
2022/03/15 10:59:06;;;;;;;14.10;8.33;;;;;;;15.77;34.86;100884.22;5091797;28;20233;-57
2022/03/15 11:01:38;;;;;;;17.93;10.13;;;;;;;15.03;35.40;100879.47;5093916;28;20253;-57
2022/03/15 11:04:07;;;;;;;12.93;8.83;;;;;;;15.52;37.68;100882.34;5095652;28;20687;-56
2022/03/15 11:06:38;;;;;;;14.77;8.60;;;;;;;14.91;31.73;100878.50;5096094;28;20226;-56
2022/03/15 11:09:17;;;;;;;15.43;9.07;;;;;;;14.53;33.30;100865.38;5095185;28;20204;-65
2022/03/15 11:11:46;;;;;;;17.20;9.23;;;;;;;14.56;33.96;100862.63;5095163;28;20277;-64
2022/03/15 11:14:15;;;;;;;14.90;9.60;;;;;;;14.49;34.51;100859.56;5096210;28;20195;-64
2022/03/15 11:16:48;;;;;;;15.17;9.10;;;;;;;14.16;33.46;100855.47;5095399;28;20238;-64
2022/03/15 11:19:16;;;;;;;13.67;9.03;;;;;;;13.95;34.63;100851.59;5094088;28;20372;-57
2022/03/15 11:21:44;;;;;;;14.47;9.20;;;;;;;14.56;37.34;100847.19;5095379;28;20218;-65
2022/03/15 11:24:18;;;;;;;13.23;8.60;;;;;;;13.96;34.61;100854.09;5094484;28;21345;-56
2022/03/15 11:26:47;;;;;;;16.10;9.03;;;;;;;14.62;35.03;100857.91;5093866;28;20705;-57